sensor_id;sensor_type;location;lat;lon;timestamp;P1;durP1;ratioP1;P2;durP2;ratioP2
43325;SDS011;28920;59.862;30.636;2023-04-25T00:00:24;29.02;;;17.20;;
43325;SDS011;28920;59.862;30.636;2023-04-25T00:02:52;25.67;;;17.45;;
43325;SDS011;28920;59.862;30.636;2023-04-25T00:05:19;26.65;;;17.48;;
43325;SDS011;28920;59.862;30.636;2023-04-25T00:07:46;28.58;;;16.75;;
43325;SDS011;28920;59.862;30.636;2023-04-25T00:10:15;25.88;;;17.17;;
43325;SDS011;28920;59.862;30.636;2023-04-25T00:12:42;22.77;;;16.70;;
43325;SDS011;28920;59.862;30.636;2023-04-25T00:15:11;27.83;;;17.92;;
43325;SDS011;28920;59.862;30.636;2023-04-25T00:17:38;22.42;;;15.90;;
43325;SDS011;28920;59.862;30.636;2023-04-25T00:20:06;29.25;;;19.20;;
43325;SDS011;28920;59.862;30.636;2023-04-25T00:22:35;24.65;;;16.35;;
43325;SDS011;28920;59.862;30.636;2023-04-25T00:25:04;22.75;;;16.08;;
43325;SDS011;28920;59.862;30.636;2023-04-25T00:27:33;25.30;;;15.63;;
43325;SDS011;28920;59.862;30.636;2023-04-25T00:30:00;25.15;;;15.90;;
43325;SDS011;28920;59.862;30.636;2023-04-25T00:32:31;23.77;;;15.70;;
43325;SDS011;28920;59.862;30.636;2023-04-25T00:34:58;29.17;;;16.87;;
43325;SDS011;28920;59.862;30.636;2023-04-25T00:37:25;28.85;;;18.67;;
43325;SDS011;28920;59.862;30.636;2023-04-25T00:39:53;27.23;;;16.55;;
43325;SDS011;28920;59.862;30.636;2023-04-25T00:42:22;25.50;;;17.17;;
43325;SDS011;28920;59.862;30.636;2023-04-25T00:44:49;27.35;;;18.15;;
43325;SDS011;28920;59.862;30.636;2023-04-25T00:47:18;30.05;;;18.12;;
43325;SDS011;28920;59.862;30.636;2023-04-25T00:49:46;25.80;;;16.62;;
43325;SDS011;28920;59.862;30.636;2023-04-25T00:52:13;27.33;;;16.87;;
43325;SDS011;28920;59.862;30.636;2023-04-25T00:54:40;26.98;;;18.50;;
43325;SDS011;28920;59.862;30.636;2023-04-25T00:57:07;25.77;;;17.83;;
43325;SDS011;28920;59.862;30.636;2023-04-25T00:59:35;31.50;;;17.67;;
43325;SDS011;28920;59.862;30.636;2023-04-25T01:02:05;25.88;;;17.98;;
43325;SDS011;28920;59.862;30.636;2023-04-25T01:04:33;30.85;;;19.85;;
43325;SDS011;28920;59.862;30.636;2023-04-25T01:07:01;29.83;;;17.77;;
43325;SDS011;28920;59.862;30.636;2023-04-25T01:09:29;31.90;;;20.30;;
43325;SDS011;28920;59.862;30.636;2023-04-25T01:11:57;37.75;;;21.02;;
43325;SDS011;28920;59.862;30.636;2023-04-25T01:14:24;28.50;;;19.60;;
43325;SDS011;28920;59.862;30.636;2023-04-25T01:16:52;24.37;;;18.48;;
43325;SDS011;28920;59.862;30.636;2023-04-25T01:19:20;28.48;;;18.23;;
43325;SDS011;28920;59.862;30.636;2023-04-25T01:21:48;25.55;;;18.42;;
43325;SDS011;28920;59.862;30.636;2023-04-25T01:24:16;27.40;;;18.33;;
43325;SDS011;28920;59.862;30.636;2023-04-25T01:26:44;22.87;;;16.45;;
43325;SDS011;28920;59.862;30.636;2023-04-25T01:29:16;30.95;;;18.40;;
43325;SDS011;28920;59.862;30.636;2023-04-25T01:31:45;27.27;;;18.87;;
43325;SDS011;28920;59.862;30.636;2023-04-25T01:34:13;27.13;;;18.37;;
43325;SDS011;28920;59.862;30.636;2023-04-25T01:36:40;30.75;;;18.65;;
43325;SDS011;28920;59.862;30.636;2023-04-25T01:39:08;30.52;;;18.77;;
43325;SDS011;28920;59.862;30.636;2023-04-25T01:41:36;28.40;;;19.33;;
43325;SDS011;28920;59.862;30.636;2023-04-25T01:44:04;31.70;;;19.30;;
43325;SDS011;28920;59.862;30.636;2023-04-25T01:46:32;31.12;;;18.05;;
43325;SDS011;28920;59.862;30.636;2023-04-25T01:49:00;31.58;;;18.12;;
43325;SDS011;28920;59.862;30.636;2023-04-25T01:51:28;23.95;;;18.12;;
43325;SDS011;28920;59.862;30.636;2023-04-25T01:53:56;28.38;;;18.33;;
43325;SDS011;28920;59.862;30.636;2023-04-25T01:56:24;27.35;;;18.60;;
43325;SDS011;28920;59.862;30.636;2023-04-25T01:58:53;29.98;;;18.40;;
43325;SDS011;28920;59.862;30.636;2023-04-25T02:01:21;29.02;;;18.77;;
43325;SDS011;28920;59.862;30.636;2023-04-25T02:03:49;31.05;;;19.55;;
43325;SDS011;28920;59.862;30.636;2023-04-25T02:06:17;27.05;;;17.77;;
43325;SDS011;28920;59.862;30.636;2023-04-25T02:08:45;29.83;;;17.75;;
43325;SDS011;28920;59.862;30.636;2023-04-25T02:11:12;30.12;;;18.60;;
43325;SDS011;28920;59.862;30.636;2023-04-25T02:13:40;28.77;;;18.95;;
43325;SDS011;28920;59.862;30.636;2023-04-25T02:16:08;32.28;;;19.20;;
43325;SDS011;28920;59.862;30.636;2023-04-25T02:18:37;26.77;;;18.83;;
43325;SDS011;28920;59.862;30.636;2023-04-25T02:21:06;27.55;;;19.12;;
43325;SDS011;28920;59.862;30.636;2023-04-25T02:23:33;26.30;;;18.87;;
43325;SDS011;28920;59.862;30.636;2023-04-25T02:26:01;28.50;;;18.80;;
43325;SDS011;28920;59.862;30.636;2023-04-25T02:28:28;31.10;;;19.12;;
43325;SDS011;28920;59.862;30.636;2023-04-25T02:30:57;30.08;;;18.40;;
43325;SDS011;28920;59.862;30.636;2023-04-25T02:33:24;28.17;;;18.60;;
43325;SDS011;28920;59.862;30.636;2023-04-25T02:35:51;27.73;;;17.70;;
43325;SDS011;28920;59.862;30.636;2023-04-25T02:38:21;27.00;;;17.77;;
43325;SDS011;28920;59.862;30.636;2023-04-25T02:40:49;28.83;;;19.90;;
43325;SDS011;28920;59.862;30.636;2023-04-25T02:43:16;29.58;;;17.50;;
43325;SDS011;28920;59.862;30.636;2023-04-25T02:45:43;26.50;;;17.77;;
43325;SDS011;28920;59.862;30.636;2023-04-25T02:48:12;43.85;;;21.37;;
43325;SDS011;28920;59.862;30.636;2023-04-25T02:50:39;31.08;;;18.73;;
43325;SDS011;28920;59.862;30.636;2023-04-25T02:53:07;28.52;;;17.77;;
43325;SDS011;28920;59.862;30.636;2023-04-25T02:55:35;25.95;;;17.52;;
43325;SDS011;28920;59.862;30.636;2023-04-25T02:58:02;29.35;;;17.87;;
43325;SDS011;28920;59.862;30.636;2023-04-25T03:00:31;24.70;;;17.20;;
43325;SDS011;28920;59.862;30.636;2023-04-25T03:02:58;28.17;;;17.50;;
43325;SDS011;28920;59.862;30.636;2023-04-25T03:05:26;24.83;;;18.30;;
43325;SDS011;28920;59.862;30.636;2023-04-25T03:07:53;25.65;;;17.42;;
43325;SDS011;28920;59.862;30.636;2023-04-25T03:10:21;28.87;;;17.02;;
43325;SDS011;28920;59.862;30.636;2023-04-25T03:12:48;31.87;;;18.83;;
43325;SDS011;28920;59.862;30.636;2023-04-25T03:15:16;30.00;;;18.25;;
43325;SDS011;28920;59.862;30.636;2023-04-25T03:17:43;26.42;;;17.48;;
43325;SDS011;28920;59.862;30.636;2023-04-25T03:20:10;26.05;;;18.42;;
43325;SDS011;28920;59.862;30.636;2023-04-25T03:22:39;28.08;;;17.48;;
43325;SDS011;28920;59.862;30.636;2023-04-25T03:25:07;31.27;;;18.12;;
43325;SDS011;28920;59.862;30.636;2023-04-25T03:27:35;22.60;;;15.77;;
43325;SDS011;28920;59.862;30.636;2023-04-25T03:30:02;26.05;;;16.92;;
43325;SDS011;28920;59.862;30.636;2023-04-25T03:32:32;26.83;;;17.27;;
43325;SDS011;28920;59.862;30.636;2023-04-25T03:34:59;24.42;;;17.20;;
43325;SDS011;28920;59.862;30.636;2023-04-25T03:37:30;28.98;;;16.92;;
43325;SDS011;28920;59.862;30.636;2023-04-25T03:39:58;29.15;;;17.27;;
43325;SDS011;28920;59.862;30.636;2023-04-25T03:42:30;23.33;;;17.25;;
43325;SDS011;28920;59.862;30.636;2023-04-25T03:44:57;21.85;;;14.80;;
43325;SDS011;28920;59.862;30.636;2023-04-25T03:47:24;22.45;;;14.07;;
43325;SDS011;28920;59.862;30.636;2023-04-25T03:49:52;21.70;;;13.32;;
43325;SDS011;28920;59.862;30.636;2023-04-25T03:52:20;24.70;;;14.87;;
43325;SDS011;28920;59.862;30.636;2023-04-25T03:54:48;20.85;;;11.12;;
43325;SDS011;28920;59.862;30.636;2023-04-25T03:57:16;20.40;;;11.63;;
43325;SDS011;28920;59.862;30.636;2023-04-25T03:59:43;15.00;;;9.38;;
43325;SDS011;28920;59.862;30.636;2023-04-25T04:02:11;13.25;;;8.43;;
43325;SDS011;28920;59.862;30.636;2023-04-25T04:04:38;11.63;;;8.23;;
43325;SDS011;28920;59.862;30.636;2023-04-25T04:07:06;12.90;;;8.48;;
43325;SDS011;28920;59.862;30.636;2023-04-25T04:09:34;13.80;;;7.68;;
43325;SDS011;28920;59.862;30.636;2023-04-25T04:12:03;12.57;;;7.72;;
43325;SDS011;28920;59.862;30.636;2023-04-25T04:14:32;12.30;;;7.22;;
43325;SDS011;28920;59.862;30.636;2023-04-25T04:16:59;12.13;;;6.68;;
43325;SDS011;28920;59.862;30.636;2023-04-25T04:19:27;9.30;;;6.72;;
43325;SDS011;28920;59.862;30.636;2023-04-25T04:21:56;10.82;;;5.62;;
43325;SDS011;28920;59.862;30.636;2023-04-25T04:24:23;10.15;;;5.93;;
43325;SDS011;28920;59.862;30.636;2023-04-25T04:26:52;11.27;;;5.90;;
43325;SDS011;28920;59.862;30.636;2023-04-25T04:29:19;7.53;;;5.57;;
43325;SDS011;28920;59.862;30.636;2023-04-25T04:31:48;8.75;;;6.07;;
43325;SDS011;28920;59.862;30.636;2023-04-25T04:34:16;8.52;;;5.25;;
43325;SDS011;28920;59.862;30.636;2023-04-25T04:36:44;6.40;;;4.43;;
43325;SDS011;28920;59.862;30.636;2023-04-25T04:39:12;8.50;;;5.53;;
43325;SDS011;28920;59.862;30.636;2023-04-25T04:41:42;9.63;;;4.65;;
43325;SDS011;28920;59.862;30.636;2023-04-25T04:44:09;9.30;;;4.78;;
43325;SDS011;28920;59.862;30.636;2023-04-25T04:46:37;8.85;;;4.65;;
43325;SDS011;28920;59.862;30.636;2023-04-25T04:49:09;5.75;;;4.12;;
43325;SDS011;28920;59.862;30.636;2023-04-25T04:51:36;7.95;;;4.62;;
43325;SDS011;28920;59.862;30.636;2023-04-25T04:54:04;9.40;;;5.40;;
43325;SDS011;28920;59.862;30.636;2023-04-25T04:56:32;8.40;;;5.57;;
43325;SDS011;28920;59.862;30.636;2023-04-25T04:58:59;7.50;;;4.90;;
43325;SDS011;28920;59.862;30.636;2023-04-25T05:01:28;9.52;;;5.57;;
43325;SDS011;28920;59.862;30.636;2023-04-25T05:03:56;11.18;;;4.97;;
43325;SDS011;28920;59.862;30.636;2023-04-25T05:06:27;9.18;;;4.82;;
43325;SDS011;28920;59.862;30.636;2023-04-25T05:08:57;9.80;;;4.90;;
43325;SDS011;28920;59.862;30.636;2023-04-25T05:11:25;6.05;;;4.60;;
43325;SDS011;28920;59.862;30.636;2023-04-25T05:13:52;6.82;;;4.32;;
43325;SDS011;28920;59.862;30.636;2023-04-25T05:16:21;8.20;;;4.68;;
43325;SDS011;28920;59.862;30.636;2023-04-25T05:18:48;9.43;;;4.65;;
43325;SDS011;28920;59.862;30.636;2023-04-25T05:21:15;7.35;;;4.32;;
43325;SDS011;28920;59.862;30.636;2023-04-25T05:23:46;8.85;;;4.87;;
43325;SDS011;28920;59.862;30.636;2023-04-25T05:26:14;8.07;;;4.45;;
43325;SDS011;28920;59.862;30.636;2023-04-25T05:28:41;6.12;;;4.40;;
43325;SDS011;28920;59.862;30.636;2023-04-25T05:31:10;9.02;;;4.50;;
43325;SDS011;28920;59.862;30.636;2023-04-25T05:33:37;8.13;;;4.15;;
43325;SDS011;28920;59.862;30.636;2023-04-25T05:36:05;8.77;;;4.82;;
43325;SDS011;28920;59.862;30.636;2023-04-25T05:38:33;5.28;;;4.12;;
43325;SDS011;28920;59.862;30.636;2023-04-25T05:41:14;6.87;;;4.18;;
43325;SDS011;28920;59.862;30.636;2023-04-25T05:43:42;6.15;;;3.83;;
43325;SDS011;28920;59.862;30.636;2023-04-25T05:46:14;9.65;;;4.22;;
43325;SDS011;28920;59.862;30.636;2023-04-25T05:48:43;8.20;;;4.70;;
43325;SDS011;28920;59.862;30.636;2023-04-25T05:51:12;7.75;;;4.00;;
43325;SDS011;28920;59.862;30.636;2023-04-25T05:53:40;11.88;;;4.65;;
43325;SDS011;28920;59.862;30.636;2023-04-25T05:56:08;9.35;;;4.62;;
43325;SDS011;28920;59.862;30.636;2023-04-25T05:58:36;9.55;;;4.15;;
43325;SDS011;28920;59.862;30.636;2023-04-25T06:01:04;6.25;;;4.28;;
43325;SDS011;28920;59.862;30.636;2023-04-25T06:03:31;6.75;;;4.15;;
43325;SDS011;28920;59.862;30.636;2023-04-25T06:05:58;10.82;;;4.12;;
43325;SDS011;28920;59.862;30.636;2023-04-25T06:08:26;7.28;;;4.10;;
43325;SDS011;28920;59.862;30.636;2023-04-25T06:10:53;9.93;;;4.50;;
43325;SDS011;28920;59.862;30.636;2023-04-25T06:13:22;4.60;;;3.40;;
43325;SDS011;28920;59.862;30.636;2023-04-25T06:15:50;5.68;;;4.40;;
43325;SDS011;28920;59.862;30.636;2023-04-25T06:18:18;7.18;;;3.80;;
43325;SDS011;28920;59.862;30.636;2023-04-25T06:20:46;6.82;;;4.15;;
43325;SDS011;28920;59.862;30.636;2023-04-25T06:23:13;6.15;;;3.90;;
43325;SDS011;28920;59.862;30.636;2023-04-25T06:25:44;5.72;;;3.58;;
43325;SDS011;28920;59.862;30.636;2023-04-25T06:28:11;7.20;;;3.53;;
43325;SDS011;28920;59.862;30.636;2023-04-25T06:30:39;9.82;;;3.15;;
43325;SDS011;28920;59.862;30.636;2023-04-25T06:33:08;4.80;;;3.70;;
43325;SDS011;28920;59.862;30.636;2023-04-25T06:35:35;5.65;;;3.20;;
43325;SDS011;28920;59.862;30.636;2023-04-25T06:38:03;7.25;;;4.12;;
43325;SDS011;28920;59.862;30.636;2023-04-25T06:40:31;7.82;;;3.70;;
43325;SDS011;28920;59.862;30.636;2023-04-25T06:42:59;7.40;;;3.55;;
43325;SDS011;28920;59.862;30.636;2023-04-25T06:45:30;5.47;;;3.30;;
43325;SDS011;28920;59.862;30.636;2023-04-25T06:47:58;6.95;;;3.58;;
43325;SDS011;28920;59.862;30.636;2023-04-25T06:50:26;7.25;;;3.75;;
43325;SDS011;28920;59.862;30.636;2023-04-25T06:52:53;6.25;;;3.78;;
43325;SDS011;28920;59.862;30.636;2023-04-25T06:55:21;7.97;;;3.67;;
43325;SDS011;28920;59.862;30.636;2023-04-25T06:57:49;10.27;;;4.12;;
43325;SDS011;28920;59.862;30.636;2023-04-25T07:00:18;9.45;;;4.55;;
43325;SDS011;28920;59.862;30.636;2023-04-25T07:02:46;5.47;;;3.28;;
43325;SDS011;28920;59.862;30.636;2023-04-25T07:05:13;8.05;;;3.67;;
43325;SDS011;28920;59.862;30.636;2023-04-25T07:07:41;6.12;;;3.22;;
43325;SDS011;28920;59.862;30.636;2023-04-25T07:10:08;3.92;;;3.45;;
43325;SDS011;28920;59.862;30.636;2023-04-25T07:12:37;9.65;;;3.97;;
43325;SDS011;28920;59.862;30.636;2023-04-25T07:15:05;10.15;;;3.75;;
43325;SDS011;28920;59.862;30.636;2023-04-25T07:17:36;5.78;;;3.72;;
43325;SDS011;28920;59.862;30.636;2023-04-25T07:20:04;6.93;;;3.67;;
43325;SDS011;28920;59.862;30.636;2023-04-25T07:22:33;4.90;;;2.92;;
43325;SDS011;28920;59.862;30.636;2023-04-25T07:25:03;5.85;;;3.00;;
43325;SDS011;28920;59.862;30.636;2023-04-25T07:27:31;7.25;;;3.12;;
43325;SDS011;28920;59.862;30.636;2023-04-25T07:30:00;7.78;;;3.00;;
43325;SDS011;28920;59.862;30.636;2023-04-25T07:34:58;5.00;;;2.78;;
43325;SDS011;28920;59.862;30.636;2023-04-25T07:37:25;7.15;;;3.17;;
43325;SDS011;28920;59.862;30.636;2023-04-25T07:39:54;8.52;;;3.05;;
43325;SDS011;28920;59.862;30.636;2023-04-25T07:42:22;3.95;;;2.83;;
43325;SDS011;28920;59.862;30.636;2023-04-25T07:44:49;8.98;;;3.33;;
43325;SDS011;28920;59.862;30.636;2023-04-25T07:47:18;8.35;;;2.97;;
43325;SDS011;28920;59.862;30.636;2023-04-25T07:49:45;9.93;;;2.95;;
43325;SDS011;28920;59.862;30.636;2023-04-25T07:52:12;8.27;;;2.53;;
43325;SDS011;28920;59.862;30.636;2023-04-25T07:54:43;5.70;;;2.90;;
43325;SDS011;28920;59.862;30.636;2023-04-25T07:57:10;4.28;;;2.90;;
43325;SDS011;28920;59.862;30.636;2023-04-25T07:59:40;4.20;;;2.90;;
43325;SDS011;28920;59.862;30.636;2023-04-25T08:02:08;7.53;;;2.90;;
43325;SDS011;28920;59.862;30.636;2023-04-25T08:04:35;3.30;;;2.60;;
43325;SDS011;28920;59.862;30.636;2023-04-25T08:07:03;3.90;;;2.80;;
43325;SDS011;28920;59.862;30.636;2023-04-25T08:09:30;6.00;;;3.10;;
43325;SDS011;28920;59.862;30.636;2023-04-25T08:12:01;10.23;;;2.90;;
43325;SDS011;28920;59.862;30.636;2023-04-25T08:14:30;4.72;;;2.37;;
43325;SDS011;28920;59.862;30.636;2023-04-25T08:17:03;4.12;;;2.65;;
43325;SDS011;28920;59.862;30.636;2023-04-25T08:19:31;4.00;;;2.62;;
43325;SDS011;28920;59.862;30.636;2023-04-25T08:21:58;6.85;;;2.58;;
43325;SDS011;28920;59.862;30.636;2023-04-25T08:24:27;4.05;;;2.37;;
43325;SDS011;28920;59.862;30.636;2023-04-25T08:26:54;7.70;;;2.90;;
43325;SDS011;28920;59.862;30.636;2023-04-25T08:29:22;4.85;;;2.45;;
43325;SDS011;28920;59.862;30.636;2023-04-25T08:31:52;4.62;;;2.15;;
43325;SDS011;28920;59.862;30.636;2023-04-25T08:34:20;3.47;;;2.40;;
43325;SDS011;28920;59.862;30.636;2023-04-25T08:36:47;5.45;;;2.80;;
43325;SDS011;28920;59.862;30.636;2023-04-25T08:39:16;5.80;;;2.58;;
43325;SDS011;28920;59.862;30.636;2023-04-25T08:41:46;3.70;;;2.67;;
43325;SDS011;28920;59.862;30.636;2023-04-25T08:44:13;4.50;;;2.42;;
43325;SDS011;28920;59.862;30.636;2023-04-25T08:46:43;3.17;;;2.17;;
43325;SDS011;28920;59.862;30.636;2023-04-25T08:49:16;4.15;;;2.00;;
43325;SDS011;28920;59.862;30.636;2023-04-25T08:51:46;4.90;;;2.20;;
43325;SDS011;28920;59.862;30.636;2023-04-25T08:54:14;4.28;;;2.25;;
43325;SDS011;28920;59.862;30.636;2023-04-25T08:56:43;4.15;;;2.62;;
43325;SDS011;28920;59.862;30.636;2023-04-25T08:59:13;5.20;;;2.42;;
43325;SDS011;28920;59.862;30.636;2023-04-25T09:01:41;2.62;;;2.42;;
43325;SDS011;28920;59.862;30.636;2023-04-25T09:04:08;5.47;;;2.80;;
43325;SDS011;28920;59.862;30.636;2023-04-25T09:06:36;4.87;;;2.67;;
43325;SDS011;28920;59.862;30.636;2023-04-25T09:09:04;4.72;;;2.12;;
43325;SDS011;28920;59.862;30.636;2023-04-25T09:11:33;3.72;;;2.20;;
43325;SDS011;28920;59.862;30.636;2023-04-25T09:14:12;5.12;;;2.30;;
43325;SDS011;28920;59.862;30.636;2023-04-25T09:16:57;2.17;;;1.90;;
43325;SDS011;28920;59.862;30.636;2023-04-25T09:19:31;3.50;;;2.62;;
43325;SDS011;28920;59.862;30.636;2023-04-25T09:22:02;4.05;;;2.60;;
43325;SDS011;28920;59.862;30.636;2023-04-25T09:24:33;5.63;;;4.10;;
43325;SDS011;28920;59.862;30.636;2023-04-25T09:27:05;6.60;;;4.60;;
43325;SDS011;28920;59.862;30.636;2023-04-25T09:29:34;7.43;;;3.12;;
43325;SDS011;28920;59.862;30.636;2023-04-25T09:32:10;4.40;;;2.75;;
43325;SDS011;28920;59.862;30.636;2023-04-25T09:34:43;5.65;;;3.60;;
43325;SDS011;28920;59.862;30.636;2023-04-25T09:37:11;4.45;;;2.92;;
43325;SDS011;28920;59.862;30.636;2023-04-25T09:39:42;3.22;;;2.60;;
43325;SDS011;28920;59.862;30.636;2023-04-25T09:42:15;3.92;;;2.45;;
43325;SDS011;28920;59.862;30.636;2023-04-25T09:44:43;6.62;;;2.58;;
43325;SDS011;28920;59.862;30.636;2023-04-25T09:47:12;8.65;;;3.70;;
43325;SDS011;28920;59.862;30.636;2023-04-25T09:49:43;8.98;;;2.60;;
43325;SDS011;28920;59.862;30.636;2023-04-25T09:52:13;5.22;;;2.70;;
43325;SDS011;28920;59.862;30.636;2023-04-25T09:54:41;3.15;;;2.30;;
43325;SDS011;28920;59.862;30.636;2023-04-25T09:57:11;7.43;;;4.82;;
43325;SDS011;28920;59.862;30.636;2023-04-25T09:59:42;8.05;;;6.72;;
43325;SDS011;28920;59.862;30.636;2023-04-25T10:02:13;5.43;;;3.72;;
43325;SDS011;28920;59.862;30.636;2023-04-25T10:04:43;8.50;;;5.65;;
43325;SDS011;28920;59.862;30.636;2023-04-25T10:07:15;5.18;;;3.75;;
43325;SDS011;28920;59.862;30.636;2023-04-25T10:09:47;4.25;;;2.60;;
43325;SDS011;28920;59.862;30.636;2023-04-25T10:12:16;6.30;;;4.12;;
43325;SDS011;28920;59.862;30.636;2023-04-25T10:14:44;5.90;;;3.90;;
43325;SDS011;28920;59.862;30.636;2023-04-25T10:17:13;4.93;;;2.78;;
43325;SDS011;28920;59.862;30.636;2023-04-25T10:19:41;6.70;;;3.92;;
43325;SDS011;28920;59.862;30.636;2023-04-25T10:22:11;13.30;;;10.27;;
43325;SDS011;28920;59.862;30.636;2023-04-25T10:24:43;19.00;;;14.95;;
43325;SDS011;28920;59.862;30.636;2023-04-25T10:27:13;25.62;;;18.15;;
43325;SDS011;28920;59.862;30.636;2023-04-25T10:29:41;9.15;;;4.82;;
43325;SDS011;28920;59.862;30.636;2023-04-25T10:32:09;6.00;;;4.20;;
43325;SDS011;28920;59.862;30.636;2023-04-25T10:34:40;7.10;;;5.28;;
43325;SDS011;28920;59.862;30.636;2023-04-25T10:37:08;7.70;;;6.28;;
43325;SDS011;28920;59.862;30.636;2023-04-25T10:39:38;8.02;;;6.90;;
43325;SDS011;28920;59.862;30.636;2023-04-25T10:42:06;5.65;;;3.85;;
43325;SDS011;28920;59.862;30.636;2023-04-25T10:44:35;8.05;;;3.70;;
43325;SDS011;28920;59.862;30.636;2023-04-25T10:47:05;4.78;;;2.50;;
43325;SDS011;28920;59.862;30.636;2023-04-25T10:49:34;5.57;;;3.08;;
43325;SDS011;28920;59.862;30.636;2023-04-25T10:52:15;4.70;;;2.67;;
43325;SDS011;28920;59.862;30.636;2023-04-25T10:54:48;3.78;;;2.67;;
43325;SDS011;28920;59.862;30.636;2023-04-25T10:57:30;3.92;;;2.62;;
43325;SDS011;28920;59.862;30.636;2023-04-25T11:00:01;5.00;;;2.83;;
43325;SDS011;28920;59.862;30.636;2023-04-25T11:02:36;3.85;;;2.70;;
43325;SDS011;28920;59.862;30.636;2023-04-25T11:05:05;4.25;;;2.20;;
43325;SDS011;28920;59.862;30.636;2023-04-25T11:07:39;4.55;;;2.62;;
43325;SDS011;28920;59.862;30.636;2023-04-25T11:10:12;4.15;;;2.33;;
43325;SDS011;28920;59.862;30.636;2023-04-25T11:12:40;5.12;;;2.42;;
43325;SDS011;28920;59.862;30.636;2023-04-25T11:15:09;3.97;;;2.83;;
43325;SDS011;28920;59.862;30.636;2023-04-25T11:17:36;5.93;;;2.70;;
43325;SDS011;28920;59.862;30.636;2023-04-25T11:20:06;3.95;;;2.95;;
43325;SDS011;28920;59.862;30.636;2023-04-25T11:22:37;5.15;;;2.75;;
43325;SDS011;28920;59.862;30.636;2023-04-25T11:25:07;5.28;;;2.60;;
43325;SDS011;28920;59.862;30.636;2023-04-25T11:27:37;4.32;;;2.50;;
43325;SDS011;28920;59.862;30.636;2023-04-25T11:32:39;4.12;;;2.42;;
43325;SDS011;28920;59.862;30.636;2023-04-25T11:35:07;6.30;;;2.53;;
43325;SDS011;28920;59.862;30.636;2023-04-25T11:37:35;4.03;;;2.55;;
43325;SDS011;28920;59.862;30.636;2023-04-25T11:40:03;5.55;;;2.80;;
43325;SDS011;28920;59.862;30.636;2023-04-25T11:42:32;4.28;;;2.10;;
43325;SDS011;28920;59.862;30.636;2023-04-25T11:45:00;5.53;;;2.80;;
43325;SDS011;28920;59.862;30.636;2023-04-25T11:47:31;5.12;;;2.40;;
43325;SDS011;28920;59.862;30.636;2023-04-25T11:50:00;6.90;;;2.78;;
43325;SDS011;28920;59.862;30.636;2023-04-25T11:52:37;3.10;;;2.40;;
43325;SDS011;28920;59.862;30.636;2023-04-25T11:55:06;4.15;;;2.85;;
43325;SDS011;28920;59.862;30.636;2023-04-25T11:57:34;4.70;;;2.80;;
43325;SDS011;28920;59.862;30.636;2023-04-25T12:00:06;4.25;;;2.22;;
43325;SDS011;28920;59.862;30.636;2023-04-25T12:02:43;3.97;;;2.53;;
43325;SDS011;28920;59.862;30.636;2023-04-25T12:05:12;4.07;;;2.55;;
43325;SDS011;28920;59.862;30.636;2023-04-25T12:07:41;3.47;;;2.95;;
43325;SDS011;28920;59.862;30.636;2023-04-25T12:10:09;5.90;;;2.65;;
43325;SDS011;28920;59.862;30.636;2023-04-25T12:12:38;2.83;;;2.55;;
43325;SDS011;28920;59.862;30.636;2023-04-25T12:15:09;5.40;;;3.10;;
43325;SDS011;28920;59.862;30.636;2023-04-25T12:17:38;7.55;;;2.67;;
43325;SDS011;28920;59.862;30.636;2023-04-25T12:20:07;4.32;;;2.75;;
43325;SDS011;28920;59.862;30.636;2023-04-25T12:22:36;9.70;;;4.60;;
43325;SDS011;28920;59.862;30.636;2023-04-25T12:25:04;10.98;;;6.12;;
43325;SDS011;28920;59.862;30.636;2023-04-25T12:27:32;8.38;;;3.15;;
43325;SDS011;28920;59.862;30.636;2023-04-25T12:29:59;5.15;;;2.95;;
43325;SDS011;28920;59.862;30.636;2023-04-25T12:32:32;6.10;;;2.60;;
43325;SDS011;28920;59.862;30.636;2023-04-25T12:35:00;10.40;;;2.85;;
43325;SDS011;28920;59.862;30.636;2023-04-25T12:37:30;7.70;;;3.12;;
43325;SDS011;28920;59.862;30.636;2023-04-25T12:39:57;5.43;;;2.80;;
43325;SDS011;28920;59.862;30.636;2023-04-25T12:42:25;4.68;;;3.00;;
43325;SDS011;28920;59.862;30.636;2023-04-25T12:44:53;3.87;;;2.97;;
43325;SDS011;28920;59.862;30.636;2023-04-25T12:47:20;5.45;;;2.70;;
43325;SDS011;28920;59.862;30.636;2023-04-25T12:49:47;4.80;;;2.85;;
43325;SDS011;28920;59.862;30.636;2023-04-25T12:52:15;3.90;;;2.50;;
43325;SDS011;28920;59.862;30.636;2023-04-25T12:54:42;4.75;;;2.90;;
43325;SDS011;28920;59.862;30.636;2023-04-25T12:57:10;6.10;;;2.85;;
43325;SDS011;28920;59.862;30.636;2023-04-25T12:59:37;3.95;;;2.95;;
43325;SDS011;28920;59.862;30.636;2023-04-25T13:02:05;4.12;;;3.70;;
43325;SDS011;28920;59.862;30.636;2023-04-25T13:04:32;4.12;;;3.22;;
43325;SDS011;28920;59.862;30.636;2023-04-25T13:06:59;4.22;;;2.92;;
43325;SDS011;28920;59.862;30.636;2023-04-25T13:09:27;4.68;;;2.97;;
43325;SDS011;28920;59.862;30.636;2023-04-25T13:11:54;5.00;;;2.28;;
43325;SDS011;28920;59.862;30.636;2023-04-25T13:14:22;4.93;;;2.75;;
43325;SDS011;28920;59.862;30.636;2023-04-25T13:16:49;4.47;;;2.58;;
43325;SDS011;28920;59.862;30.636;2023-04-25T13:19:16;4.10;;;2.83;;
43325;SDS011;28920;59.862;30.636;2023-04-25T13:21:44;3.58;;;2.85;;
43325;SDS011;28920;59.862;30.636;2023-04-25T13:24:11;4.32;;;3.30;;
43325;SDS011;28920;59.862;30.636;2023-04-25T13:26:38;6.55;;;2.80;;
43325;SDS011;28920;59.862;30.636;2023-04-25T13:29:06;5.12;;;4.60;;
43325;SDS011;28920;59.862;30.636;2023-04-25T13:31:33;7.55;;;6.57;;
43325;SDS011;28920;59.862;30.636;2023-04-25T13:34:00;13.18;;;8.88;;
43325;SDS011;28920;59.862;30.636;2023-04-25T13:36:28;5.20;;;3.28;;
43325;SDS011;28920;59.862;30.636;2023-04-25T13:38:55;4.55;;;3.12;;
43325;SDS011;28920;59.862;30.636;2023-04-25T13:41:22;5.68;;;2.80;;
43325;SDS011;28920;59.862;30.636;2023-04-25T13:43:50;7.87;;;3.70;;
43325;SDS011;28920;59.862;30.636;2023-04-25T13:46:18;4.25;;;2.90;;
43325;SDS011;28920;59.862;30.636;2023-04-25T13:48:45;7.80;;;2.47;;
43325;SDS011;28920;59.862;30.636;2023-04-25T13:51:15;3.90;;;2.62;;
43325;SDS011;28920;59.862;30.636;2023-04-25T13:53:43;5.80;;;2.80;;
43325;SDS011;28920;59.862;30.636;2023-04-25T13:56:11;4.25;;;2.95;;
43325;SDS011;28920;59.862;30.636;2023-04-25T13:58:38;6.47;;;3.47;;
43325;SDS011;28920;59.862;30.636;2023-04-25T14:01:06;5.57;;;2.95;;
43325;SDS011;28920;59.862;30.636;2023-04-25T14:03:34;5.20;;;3.28;;
43325;SDS011;28920;59.862;30.636;2023-04-25T14:06:01;5.95;;;3.15;;
43325;SDS011;28920;59.862;30.636;2023-04-25T14:08:28;7.00;;;3.35;;
43325;SDS011;28920;59.862;30.636;2023-04-25T14:10:56;6.18;;;2.60;;
43325;SDS011;28920;59.862;30.636;2023-04-25T14:13:23;8.60;;;2.85;;
43325;SDS011;28920;59.862;30.636;2023-04-25T14:15:50;3.65;;;3.28;;
43325;SDS011;28920;59.862;30.636;2023-04-25T14:18:18;6.32;;;2.80;;
43325;SDS011;28920;59.862;30.636;2023-04-25T14:20:46;7.25;;;3.10;;
43325;SDS011;28920;59.862;30.636;2023-04-25T14:23:13;3.53;;;2.62;;
43325;SDS011;28920;59.862;30.636;2023-04-25T14:25:40;6.97;;;2.83;;
43325;SDS011;28920;59.862;30.636;2023-04-25T14:28:09;6.12;;;2.70;;
43325;SDS011;28920;59.862;30.636;2023-04-25T14:30:37;9.45;;;3.70;;
43325;SDS011;28920;59.862;30.636;2023-04-25T14:33:04;5.22;;;2.45;;
43325;SDS011;28920;59.862;30.636;2023-04-25T14:35:32;18.45;;;3.35;;
43325;SDS011;28920;59.862;30.636;2023-04-25T14:38:00;8.00;;;2.97;;